Time;durP1;ratioP1;P1;durP2;ratioP2;P2;SDS_P1;SDS_P2;PMS_P1;PMS_P2;Temp;Humidity;BMP_temperature;BMP_pressure;BME280_temperature;BME280_humidity;BME280_pressure;Samples;Min_cycle;Max_cycle;Signal;HPM_P1;HPM_P2
2023/01/12 00:00:48;;;;;;;;;;;8.30;99.90;;;;;;5096551;28;19908;-64
2023/01/12 00:03:13;;;;;;;;;;;8.40;99.90;;;;;;5096524;28;19912;-64
2023/01/12 00:05:39;;;;;;;;;;;8.30;99.90;;;;;;5096245;28;19908;-64
2023/01/12 00:08:04;;;;;;;;;;;8.30;99.90;;;;;;5096280;28;20285;-64
2023/01/12 00:10:30;;;;;;;;;;;8.20;99.90;;;;;;5096304;28;20272;-64
2023/01/12 00:12:56;;;;;;;;;;;8.20;99.90;;;;;;5096066;28;19931;-64
2023/01/12 00:16:33;;;;;;;;;;;8.20;99.90;;;;;;5096024;28;19916;-64
2023/01/12 00:18:07;;;;;;;;;;;8.20;99.90;;;;;;5095697;28;19912;-64
2023/01/12 00:20:32;;;;;;;;;;;8.20;99.90;;;;;;5095939;28;19931;-64
2023/01/12 00:22:58;;;;;;;;;;;8.20;99.90;;;;;;5095863;28;19931;-64
2023/01/12 00:25:23;;;;;;;;;;;8.20;99.90;;;;;;5095831;28;19934;-64
2023/01/12 00:27:49;;;;;;;;;;;8.20;99.90;;;;;;5095931;28;19912;-64
2023/01/12 00:30:14;;;;;;;;;;;8.20;99.90;;;;;;5074124;28;19966;-64
2023/01/12 00:32:40;;;;;;;;;;;8.20;99.90;;;;;;5075433;28;19970;-64
2023/01/12 00:35:05;;;;;;;;;;;8.30;99.90;;;;;;5075413;28;19908;-64
2023/01/12 00:37:33;;;;;;;;;;;8.30;99.90;;;;;;5075367;28;19908;-64
2023/01/12 00:39:58;;;;;;;;;;;8.30;99.90;;;;;;5075344;28;19908;-64
2023/01/12 00:45:24;;;;;;;;;;;8.40;99.90;;;;;;5075092;28;20381;-64
2023/01/12 00:47:50;;;;;;;;;;;8.40;99.90;;;;;;5075472;28;19931;-64
2023/01/12 00:50:16;;;;;;;;;;;8.50;99.90;;;;;;5075336;28;19912;-64
2023/01/12 00:52:41;;;;;;;;;;;8.60;99.90;;;;;;5075044;28;19916;-64
2023/01/12 00:55:07;;;;;;;;;;;8.60;99.90;;;;;;5074994;28;19913;-64
2023/01/12 00:57:32;;;;;;;;;;;8.60;99.90;;;;;;5074953;28;20358;-65
2023/01/12 00:59:58;;;;;;;;;;;8.70;99.90;;;;;;5074891;28;19999;-64
2023/01/12 01:02:24;;;;;;;;;;;8.70;99.90;;;;;;5074882;28;19909;-64
2023/01/12 01:04:50;;;;;;;;;;;8.80;99.90;;;;;;5075086;28;19974;-64
2023/01/12 01:07:16;;;;;;;;;;;8.80;99.90;;;;;;5075041;28;19908;-64
2023/01/12 01:09:42;;;;;;;;;;;8.80;99.90;;;;;;5074917;28;20374;-64
2023/01/12 01:12:07;;;;;;;;;;;8.70;99.90;;;;;;5075051;28;19920;-64
2023/01/12 01:14:32;;;;;;;;;;;8.70;99.90;;;;;;5074926;28;19909;-64
2023/01/12 01:16:58;;;;;;;;;;;8.60;99.90;;;;;;5074610;28;19923;-64
2023/01/12 01:19:23;;;;;;;;;;;8.50;99.90;;;;;;5074551;28;20431;-63
2023/01/12 01:21:49;;;;;;;;;;;8.50;99.90;;;;;;5074464;28;19908;-63
2023/01/12 01:24:14;;;;;;;;;;;8.40;99.90;;;;;;5073184;28;19931;-64
2023/01/12 01:26:40;;;;;;;;;;;8.40;99.90;;;;;;5074400;28;19909;-63
2023/01/12 01:29:06;;;;;;;;;;;8.40;99.90;;;;;;5079448;28;20007;-64
2023/01/12 01:31:31;;;;;;;;;;;8.40;99.90;;;;;;5094586;28;20365;-63
2023/01/12 01:33:57;;;;;;;;;;;8.40;99.90;;;;;;5094806;28;19912;-64
2023/01/12 01:36:22;;;;;;;;;;;8.40;99.90;;;;;;5094756;28;19915;-64
2023/01/12 01:38:49;;;;;;;;;;;8.50;99.90;;;;;;5093976;28;19954;-64
2023/01/12 01:41:16;;;;;;;;;;;8.60;99.90;;;;;;5094680;28;19915;-64
2023/01/12 01:44:01;;;;;;;;;;;8.70;99.90;;;;;;5094349;28;20365;-64
2023/01/12 01:46:33;;;;;;;;;;;8.70;99.90;;;;;;5094177;28;19913;-63
2023/01/12 01:49:03;;;;;;;;;;;8.60;99.90;;;;;;5094149;28;19908;-63
2023/01/12 01:51:29;;;;;;;;;;;8.60;99.90;;;;;;5094360;28;19914;-63
2023/01/12 01:53:54;;;;;;;;;;;8.60;99.90;;;;;;5094219;28;19908;-63
2023/01/12 01:56:24;;;;;;;;;;;8.60;99.90;;;;;;5094406;28;19915;-63
2023/01/12 01:58:53;;;;;;;;;;;8.60;99.90;;;;;;5094079;28;19916;-63
2023/01/12 02:01:18;;;;;;;;;;;8.70;99.90;;;;;;5094360;28;20311;-63
2023/01/12 02:03:44;;;;;;;;;;;8.70;99.90;;;;;;5094065;28;19912;-63
2023/01/12 02:06:10;;;;;;;;;;;8.70;99.90;;;;;;5094243;28;20392;-63
2023/01/12 02:08:55;;;;;;;;;;;8.70;99.90;;;;;;5094244;28;19908;-64
2023/01/12 02:16:59;;;;;;;;;;;8.80;99.90;;;;;;5093673;28;19915;-64
2023/01/12 02:19:36;;;;;;;;;;;8.80;99.90;;;;;;5094111;28;19908;-64
2023/01/12 02:22:13;;;;;;;;;;;8.80;99.90;;;;;;5093832;28;19954;-64
2023/01/12 02:24:47;;;;;;;;;;;8.90;99.90;;;;;;5094030;28;19931;-64
2023/01/12 02:27:22;;;;;;;;;;;8.90;99.90;;;;;;5093722;28;19908;-64
2023/01/12 02:30:04;;;;;;;;;;;8.90;99.90;;;;;;5093592;28;19967;-64
2023/01/12 02:32:38;;;;;;;;;;;8.90;99.90;;;;;;5093725;28;19908;-64
2023/01/12 02:35:14;;;;;;;;;;;8.90;99.90;;;;;;5093687;28;19961;-64
2023/01/12 02:37:44;;;;;;;;;;;9.00;99.90;;;;;;5093912;28;20386;-64
2023/01/12 02:40:18;;;;;;;;;;;9.00;99.90;;;;;;5093684;28;19939;-64
2023/01/12 02:42:53;;;;;;;;;;;9.00;99.90;;;;;;5093610;28;19909;-64
2023/01/12 02:45:34;;;;;;;;;;;9.00;99.90;;;;;;5093602;28;20408;-64
2023/01/12 02:48:05;;;;;;;;;;;9.00;99.90;;;;;;5093805;28;20007;-64
2023/01/12 02:50:50;;;;;;;;;;;9.10;99.90;;;;;;5093652;28;19955;-64
2023/01/12 02:53:19;;;;;;;;;;;9.00;99.90;;;;;;5097333;28;19908;-64
2023/01/12 02:55:45;;;;;;;;;;;9.00;99.90;;;;;;5097820;28;19940;-64
2023/01/12 02:58:12;;;;;;;;;;;9.00;99.90;;;;;;5097770;28;19916;-64
2023/01/12 03:00:39;;;;;;;;;;;9.00;99.90;;;;;;5097754;28;19912;-64
2023/01/12 03:03:05;;;;;;;;;;;9.00;99.90;;;;;;5097704;28;20290;-64
2023/01/12 03:05:30;;;;;;;;;;;8.90;99.90;;;;;;5097445;28;19909;-64
2023/01/12 03:08:00;;;;;;;;;;;8.90;99.90;;;;;;5097378;28;19916;-64
2023/01/12 03:13:08;;;;;;;;;;;8.90;99.90;;;;;;5071104;28;19919;-64
2023/01/12 03:15:35;;;;;;;;;;;8.80;99.90;;;;;;5071252;28;19913;-64
2023/01/12 03:18:07;;;;;;;;;;;8.80;99.90;;;;;;5071203;28;19909;-64
2023/01/12 03:20:35;;;;;;;;;;;8.80;99.90;;;;;;5070929;28;19970;-64
2023/01/12 03:23:04;;;;;;;;;;;8.80;99.90;;;;;;5071117;28;19909;-64
2023/01/12 03:25:31;;;;;;;;;;;8.80;99.90;;;;;;5070919;28;20295;-65
2023/01/12 03:27:58;;;;;;;;;;;8.70;99.90;;;;;;5070763;28;20347;-64
2023/01/12 03:30:26;;;;;;;;;;;8.80;99.90;;;;;;5070944;28;19958;-64
2023/01/12 03:32:52;;;;;;;;;;;8.70;99.90;;;;;;5070524;28;19920;-64
2023/01/12 03:35:19;;;;;;;;;;;8.70;99.90;;;;;;5070562;28;20374;-64
2023/01/12 03:38:04;;;;;;;;;;;8.70;99.90;;;;;;5070496;28;19908;-65
2023/01/12 03:40:34;;;;;;;;;;;8.70;99.90;;;;;;5070433;28;20055;-64
2023/01/12 03:43:05;;;;;;;;;;;8.70;99.90;;;;;;5070657;28;20003;-64
2023/01/12 03:45:35;;;;;;;;;;;8.80;99.90;;;;;;5070626;28;19908;-64
2023/01/12 03:48:05;;;;;;;;;;;8.70;99.90;;;;;;5070322;28;20003;-64
2023/01/12 03:50:38;;;;;;;;;;;8.70;99.90;;;;;;5070165;28;19908;-63
2023/01/12 03:53:05;;;;;;;;;;;8.80;99.90;;;;;;5070213;28;19913;-64
2023/01/12 03:55:31;;;;;;;;;;;8.80;99.90;;;;;;5070420;28;19916;-63
2023/01/12 03:57:57;;;;;;;;;;;8.80;99.90;;;;;;5070130;28;20374;-64
2023/01/12 04:00:23;;;;;;;;;;;8.70;99.90;;;;;;5070322;28;19916;-64
2023/01/12 04:03:00;;;;;;;;;;;8.80;99.90;;;;;;5069982;28;19908;-64
2023/01/12 04:05:26;;;;;;;;;;;8.80;99.90;;;;;;5069934;28;19915;-64
2023/01/12 04:07:51;;;;;;;;;;;8.80;99.90;;;;;;5070167;28;19913;-63
2023/01/12 04:10:17;;;;;;;;;;;8.80;99.90;;;;;;5069789;28;19913;-64
2023/01/12 04:12:42;;;;;;;;;;;8.80;99.90;;;;;;5086985;28;19921;-64
2023/01/12 04:15:08;;;;;;;;;;;8.80;99.90;;;;;;5090053;28;19909;-64
2023/01/12 04:17:33;;;;;;;;;;;8.80;99.90;;;;;;5090053;28;19995;-64
2023/01/12 04:19:59;;;;;;;;;;;8.90;99.90;;;;;;5090179;28;19923;-64
2023/01/12 04:22:55;;;;;;;;;;;8.80;99.90;;;;;;5087950;28;19995;-64
2023/01/12 04:25:11;;;;;;;;;;;8.80;99.90;;;;;;5076167;28;19908;-64
2023/01/12 04:27:39;;;;;;;;;;;8.90;99.90;;;;;;5076535;28;19909;-65
2023/01/12 04:30:05;;;;;;;;;;;8.80;99.90;;;;;;5076521;28;19909;-65
2023/01/12 04:32:30;;;;;;;;;;;8.80;99.90;;;;;;5076395;28;19919;-65
2023/01/12 04:34:56;;;;;;;;;;;8.80;99.90;;;;;;5076467;28;20003;-65
2023/01/12 04:37:21;;;;;;;;;;;8.90;99.90;;;;;;5076354;28;19909;-64
2023/01/12 04:39:47;;;;;;;;;;;8.90;99.90;;;;;;5076059;28;19919;-65
2023/01/12 04:44:57;;;;;;;;;;;8.90;99.90;;;;;;5075788;28;19908;-64
2023/01/12 04:47:23;;;;;;;;;;;8.90;99.90;;;;;;5075968;28;19908;-64
2023/01/12 04:49:48;;;;;;;;;;;8.90;99.90;;;;;;5075911;28;19909;-64
2023/01/12 04:52:14;;;;;;;;;;;8.90;99.90;;;;;;5075804;28;19912;-64
2023/01/12 04:54:39;;;;;;;;;;;8.90;99.90;;;;;;5076056;28;19908;-64
2023/01/12 04:57:05;;;;;;;;;;;8.80;99.90;;;;;;5076029;28;19908;-64
2023/01/12 04:59:30;;;;;;;;;;;8.80;99.90;;;;;;5075975;28;19954;-64
2023/01/12 05:01:55;;;;;;;;;;;8.80;99.90;;;;;;5075675;28;19962;-64
2023/01/12 05:04:21;;;;;;;;;;;8.80;99.90;;;;;;5075923;28;19909;-64
2023/01/12 05:06:46;;;;;;;;;;;8.70;99.90;;;;;;5075642;28;20259;-64
2023/01/12 05:11:59;;;;;;;;;;;8.60;99.90;;;;;;5074987;28;19942;-64
2023/01/12 05:14:25;;;;;;;;;;;8.60;99.90;;;;;;5057629;28;19916;-64
2023/01/12 05:16:50;;;;;;;;;;;8.60;99.90;;;;;;5075669;28;19940;-64
2023/01/12 05:19:16;;;;;;;;;;;8.60;99.90;;;;;;5075361;28;19916;-64
2023/01/12 05:21:42;;;;;;;;;;;8.60;99.90;;;;;;5075224;28;19908;-64
2023/01/12 05:24:07;;;;;;;;;;;8.60;99.90;;;;;;5075480;28;19919;-65
2023/01/12 05:26:33;;;;;;;;;;;8.60;99.90;;;;;;5075149;28;19999;-64
2023/01/12 05:28:58;;;;;;;;;;;8.70;99.90;;;;;;5075327;28;19912;-64
2023/01/12 05:31:24;;;;;;;;;;;8.60;99.90;;;;;;5074970;28;20285;-64
2023/01/12 05:33:49;;;;;;;;;;;8.60;99.90;;;;;;5075230;28;19909;-64
2023/01/12 05:36:15;;;;;;;;;;;8.60;99.90;;;;;;5056187;28;19915;-64
2023/01/12 05:38:41;;;;;;;;;;;8.60;99.90;;;;;;5075149;28;19909;-64
2023/01/12 05:41:09;;;;;;;;;;;8.50;99.90;;;;;;5075121;28;19936;-64
2023/01/12 05:43:49;;;;;;;;;;;8.50;99.90;;;;;;5075019;28;19909;-64
2023/01/12 05:46:23;;;;;;;;;;;8.50;99.90;;;;;;5075042;28;19948;-64
2023/01/12 05:48:50;;;;;;;;;;;8.50;99.90;;;;;;5074997;28;19908;-64
2023/01/12 05:51:16;;;;;;;;;;;8.50;99.90;;;;;;5074670;28;19919;-64
2023/01/12 05:53:41;;;;;;;;;;;8.50;99.90;;;;;;5074621;28;19999;-64
2023/01/12 05:56:09;;;;;;;;;;;8.50;99.90;;;;;;5074857;28;19912;-64
2023/01/12 05:58:34;;;;;;;;;;;8.50;99.90;;;;;;5074558;28;19912;-63
2023/01/12 06:01:00;;;;;;;;;;;8.50;99.90;;;;;;5074472;28;19930;-63
2023/01/12 06:03:25;;;;;;;;;;;8.40;99.90;;;;;;5074719;28;19962;-64
2023/01/12 06:05:51;;;;;;;;;;;8.50;99.90;;;;;;5074366;28;19934;-63
2023/01/12 06:08:17;;;;;;;;;;;8.40;99.90;;;;;;5074337;28;19974;-63
2023/01/12 06:10:42;;;;;;;;;;;8.40;99.90;;;;;;5074338;28;20328;-64
2023/01/12 06:15:53;;;;;;;;;;;8.40;99.90;;;;;;5073936;28;19943;-64
2023/01/12 06:18:21;;;;;;;;;;;8.40;99.90;;;;;;5074130;28;19970;-64
2023/01/12 06:20:46;;;;;;;;;;;8.40;99.90;;;;;;5074362;28;19995;-64
2023/01/12 06:23:12;;;;;;;;;;;8.40;99.90;;;;;;5074135;28;19922;-64
2023/01/12 06:25:37;;;;;;;;;;;8.40;99.90;;;;;;5074019;28;19909;-65
2023/01/12 06:28:04;;;;;;;;;;;8.40;99.90;;;;;;5074266;28;20019;-64
2023/01/12 06:30:29;;;;;;;;;;;8.50;99.90;;;;;;5073944;28;19909;-64
2023/01/12 06:32:55;;;;;;;;;;;8.40;99.90;;;;;;5073884;28;19912;-64
2023/01/12 06:35:20;;;;;;;;;;;8.50;99.90;;;;;;5074138;28;19996;-64
2023/01/12 06:37:46;;;;;;;;;;;8.40;99.90;;;;;;5073845;28;19978;-64
2023/01/12 06:40:11;;;;;;;;;;;8.40;99.90;;;;;;5073833;28;19939;-64
2023/01/12 06:42:40;;;;;;;;;;;8.40;99.90;;;;;;5073926;28;19920;-65
2023/01/12 06:45:06;;;;;;;;;;;8.40;99.90;;;;;;5038811;28;20317;-66
2023/01/12 06:47:35;;;;;;;;;;;8.40;99.90;;;;;;5073808;28;19915;-65
2023/01/12 06:50:00;;;;;;;;;;;8.40;99.90;;;;;;5055723;28;19908;-65
2023/01/12 06:52:27;;;;;;;;;;;8.40;99.90;;;;;;5055688;28;19912;-65
2023/01/12 06:54:52;;;;;;;;;;;8.30;99.90;;;;;;5055696;28;19916;-65
2023/01/12 06:57:18;;;;;;;;;;;8.40;99.90;;;;;;5073871;28;19909;-66
2023/01/12 06:59:44;;;;;;;;;;;8.30;99.90;;;;;;5073729;28;19973;-66
2023/01/12 07:02:10;;;;;;;;;;;8.30;99.90;;;;;;5038981;28;19956;-65
2023/01/12 07:04:36;;;;;;;;;;;8.30;99.90;;;;;;5055980;28;20354;-65
2023/01/12 07:07:01;;;;;;;;;;;8.40;99.90;;;;;;5073766;28;19995;-64
2023/01/12 07:09:27;;;;;;;;;;;8.40;99.90;;;;;;5055571;28;19913;-64
2023/01/12 07:11:52;;;;;;;;;;;8.40;99.90;;;;;;5055295;28;19920;-64
2023/01/12 07:14:17;;;;;;;;;;;8.40;99.90;;;;;;5073451;28;19909;-65
2023/01/12 07:16:43;;;;;;;;;;;8.40;99.90;;;;;;5073441;28;20277;-65
2023/01/12 07:19:08;;;;;;;;;;;8.40;99.90;;;;;;5055467;28;19908;-65
2023/01/12 07:21:34;;;;;;;;;;;8.40;99.90;;;;;;5073395;28;19962;-64
2023/01/12 07:23:59;;;;;;;;;;;8.40;99.90;;;;;;5073318;28;19947;-65
2023/01/12 07:26:25;;;;;;;;;;;8.40;99.90;;;;;;5073364;28;20359;-66
2023/01/12 07:28:50;;;;;;;;;;;8.40;99.90;;;;;;5073311;28;20396;-66
2023/01/12 07:31:17;;;;;;;;;;;8.40;99.90;;;;;;5073202;28;19919;-66
2023/01/12 07:33:43;;;;;;;;;;;8.40;99.90;;;;;;5073236;28;19909;-66
2023/01/12 07:36:08;;;;;;;;;;;8.40;99.90;;;;;;5073542;28;19915;-66
2023/01/12 07:38:34;;;;;;;;;;;8.40;99.90;;;;;;5073294;28;19936;-66
2023/01/12 07:41:00;;;;;;;;;;;8.40;99.90;;;;;;5055234;28;19909;-66
2023/01/12 07:43:26;;;;;;;;;;;8.40;99.90;;;;;;5073447;28;19915;-65
2023/01/12 07:45:52;;;;;;;;;;;8.50;99.90;;;;;;5073172;28;19908;-65
2023/01/12 07:48:20;;;;;;;;;;;8.50;99.90;;;;;;5073382;28;19912;-65
2023/01/12 07:50:45;;;;;;;;;;;8.60;99.90;;;;;;5073326;28;19916;-65
2023/01/12 07:53:11;;;;;;;;;;;8.70;99.90;;;;;;5073243;28;20270;-66
2023/01/12 07:55:38;;;;;;;;;;;8.70;99.90;;;;;;5055217;28;19908;-65
2023/01/12 07:58:05;;;;;;;;;;;8.80;99.90;;;;;;5056263;28;19908;-65
2023/01/12 08:00:31;;;;;;;;;;;8.80;99.90;;;;;;5077031;28;20009;-65
2023/01/12 08:03:02;;;;;;;;;;;8.80;99.90;;;;;;5077023;28;19913;-65
2023/01/12 08:05:28;;;;;;;;;;;8.90;99.90;;;;;;5076693;28;19909;-65
2023/01/12 08:07:53;;;;;;;;;;;8.90;99.90;;;;;;5076673;28;19955;-65
2023/01/12 08:10:19;;;;;;;;;;;8.90;99.90;;;;;;5058796;28;19909;-66
2023/01/12 08:12:45;;;;;;;;;;;8.90;99.90;;;;;;5054982;28;19965;-65
2023/01/12 08:15:11;;;;;;;;;;;9.00;99.90;;;;;;5076314;28;19909;-65
2023/01/12 08:17:39;;;;;;;;;;;8.90;99.90;;;;;;5075314;28;19913;-64
2023/01/12 08:20:25;;;;;;;;;;;8.90;99.90;;;;;;5074949;28;19912;-64
2023/01/12 08:22:52;;;;;;;;;;;9.10;99.90;;;;;;5079201;28;19913;-64
2023/01/12 08:25:18;;;;;;;;;;;9.00;99.90;;;;;;5065603;28;20012;-64
2023/01/12 08:27:46;;;;;;;;;;;9.00;99.90;;;;;;5056339;28;20278;-65
2023/01/12 08:30:13;;;;;;;;;;;9.00;99.90;;;;;;5067337;28;19912;-64
2023/01/12 08:32:39;;;;;;;;;;;9.00;99.90;;;;;;5076041;28;20003;-66
2023/01/12 08:35:04;;;;;;;;;;;9.10;99.90;;;;;;5070643;28;21186;-64
2023/01/12 08:37:31;;;;;;;;;;;9.10;99.90;;;;;;5073827;28;19966;-64
2023/01/12 08:39:56;;;;;;;;;;;9.10;99.90;;;;;;5076304;28;20299;-65
2023/01/12 08:42:25;;;;;;;;;;;9.20;99.90;;;;;;5075376;28;19983;-66
2023/01/12 08:44:50;;;;;;;;;;;9.20;99.90;;;;;;5076164;28;20419;-65
2023/01/12 08:47:18;;;;;;;;;;;9.20;99.90;;;;;;5075113;28;20003;-65
2023/01/12 08:49:45;;;;;;;;;;;9.20;99.90;;;;;;5060490;28;20293;-65
2023/01/12 08:52:10;;;;;;;;;;;9.20;99.90;;;;;;5076022;28;20270;-65
2023/01/12 08:54:38;;;;;;;;;;;9.10;99.90;;;;;;5057988;28;19916;-65
2023/01/12 08:57:04;;;;;;;;;;;9.10;99.90;;;;;;5058141;28;20000;-65
2023/01/12 08:59:29;;;;;;;;;;;9.10;99.90;;;;;;5075961;28;19966;-65
2023/01/12 09:01:55;;;;;;;;;;;9.20;99.90;;;;;;5076277;28;20462;-65
2023/01/12 09:04:20;;;;;;;;;;;9.20;99.90;;;;;;5075847;28;19913;-65
2023/01/12 09:06:47;;;;;;;;;;;9.20;99.90;;;;;;5057680;28;19915;-65
2023/01/12 09:09:15;;;;;;;;;;;9.20;99.90;;;;;;5075603;28;20350;-65
2023/01/12 09:11:41;;;;;;;;;;;9.30;99.90;;;;;;5075369;28;20003;-65
2023/01/12 09:14:07;;;;;;;;;;;9.30;99.90;;;;;;5075422;28;20001;-65
2023/01/12 09:16:33;;;;;;;;;;;9.40;99.90;;;;;;5075387;28;20000;-65
2023/01/12 09:18:59;;;;;;;;;;;9.50;99.90;;;;;;5090258;28;19958;-65
2023/01/12 09:21:25;;;;;;;;;;;9.50;99.90;;;;;;5095490;28;19908;-64
2023/01/12 09:23:52;;;;;;;;;;;9.60;99.90;;;;;;5095408;28;19951;-65
2023/01/12 09:26:18;;;;;;;;;;;9.60;99.90;;;;;;5095708;28;19912;-65
2023/01/12 09:28:44;;;;;;;;;;;9.60;99.90;;;;;;5095389;28;19914;-65
2023/01/12 09:31:11;;;;;;;;;;;9.60;99.90;;;;;;5095523;28;20010;-65
2023/01/12 09:33:37;;;;;;;;;;;9.60;99.90;;;;;;5095281;28;20321;-65
2023/01/12 09:36:03;;;;;;;;;;;9.60;99.90;;;;;;5094388;28;19940;-65
2023/01/12 09:38:29;;;;;;;;;;;9.60;99.90;;;;;;5095086;28;19908;-65
2023/01/12 09:40:56;;;;;;;;;;;9.50;99.90;;;;;;5095383;28;19957;-65
2023/01/12 09:46:58;;;;;;;;;;;9.60;99.90;;;;;;5057853;28;19913;-64
2023/01/12 09:49:12;;;;;;;;;;;9.70;99.90;;;;;;5061833;28;20271;-65
2023/01/12 09:51:42;;;;;;;;;;;9.70;99.90;;;;;;5073610;28;19912;-65
2023/01/12 09:54:09;;;;;;;;;;;9.70;99.90;;;;;;5071944;28;19916;-64
2023/01/12 09:56:37;;;;;;;;;;;9.80;99.90;;;;;;5073927;28;19913;-66
2023/01/12 09:59:08;;;;;;;;;;;9.80;99.90;;;;;;5064306;28;19913;-64
2023/01/12 10:01:35;;;;;;;;;;;9.80;99.90;;;;;;5069151;28;19913;-65
2023/01/12 10:04:01;;;;;;;;;;;9.80;99.90;;;;;;5054778;28;19974;-65
2023/01/12 10:06:26;;;;;;;;;;;9.90;99.90;;;;;;5055126;28;19913;-65
2023/01/12 10:08:54;;;;;;;;;;;9.90;99.90;;;;;;5060162;28;19913;-64
2023/01/12 10:11:39;;;;;;;;;;;10.00;99.90;;;;;;5056111;28;19920;-65
2023/01/12 10:14:14;;;;;;;;;;;10.00;99.90;;;;;;5071933;28;19912;-65
2023/01/12 10:17:00;;;;;;;;;;;9.90;99.90;;;;;;5070765;28;19908;-65
2023/01/12 10:19:31;;;;;;;;;;;9.90;99.90;;;;;;5059219;28;19958;-65
2023/01/12 10:21:59;;;;;;;;;;;9.90;99.90;;;;;;5073815;28;19943;-65
2023/01/12 10:24:24;;;;;;;;;;;10.00;99.90;;;;;;5074266;28;19915;-65
2023/01/12 10:26:56;;;;;;;;;;;10.10;99.90;;;;;;5087902;28;20282;-64
2023/01/12 10:29:22;;;;;;;;;;;10.10;99.90;;;;;;5094392;28;19969;-64
2023/01/12 10:31:47;;;;;;;;;;;10.10;99.90;;;;;;5094042;28;20018;-66
2023/01/12 10:34:13;;;;;;;;;;;10.10;99.90;;;;;;5077430;28;19916;-65
2023/01/12 10:36:48;;;;;;;;;;;10.10;99.90;;;;;;5073919;28;19908;-65
2023/01/12 10:39:30;;;;;;;;;;;10.10;99.90;;;;;;5073812;28;19914;-65
2023/01/12 10:45:21;;;;;;;;;;;10.10;99.90;;;;;;5071565;28;19908;-65
2023/01/12 10:47:47;;;;;;;;;;;10.20;99.90;;;;;;5073573;28;19957;-65
2023/01/12 10:50:24;;;;;;;;;;;10.20;99.90;;;;;;5073668;28;19912;-65
2023/01/12 10:52:53;;;;;;;;;;;10.30;99.90;;;;;;5073566;28;19916;-65
2023/01/12 10:55:20;;;;;;;;;;;10.30;99.90;;;;;;5073619;28;19908;-65
2023/01/12 10:57:46;;;;;;;;;;;10.30;99.90;;;;;;5073884;28;19908;-65
2023/01/12 11:00:28;;;;;;;;;;;10.20;99.90;;;;;;5074065;28;19908;-65
2023/01/12 11:02:54;;;;;;;;;;;10.30;99.90;;;;;;5073526;28;19950;-65
2023/01/12 11:05:37;;;;;;;;;;;10.30;99.90;;;;;;5073461;28;20312;-65
2023/01/12 11:08:03;;;;;;;;;;;10.30;99.90;;;;;;5073706;28;19909;-65
2023/01/12 11:10:31;;;;;;;;;;;10.30;99.90;;;;;;5073697;28;20391;-65
2023/01/12 11:12:57;;;;;;;;;;;10.30;99.90;;;;;;5073212;28;20014;-64
2023/01/12 11:15:23;;;;;;;;;;;10.30;99.90;;;;;;5073646;28;19909;-64
2023/01/12 11:18:10;;;;;;;;;;;10.20;99.90;;;;;;5073367;28;19983;-64
2023/01/12 11:20:38;;;;;;;;;;;10.20;99.90;;;;;;5070449;28;19919;-64
2023/01/12 11:23:09;;;;;;;;;;;10.10;99.90;;;;;;5072227;28;19955;-65
2023/01/12 11:25:38;;;;;;;;;;;10.10;99.90;;;;;;5075254;28;20316;-65
2023/01/12 11:28:11;;;;;;;;;;;10.10;99.90;;;;;;5073196;28;19947;-65
2023/01/12 11:30:43;;;;;;;;;;;10.10;99.90;;;;;;5059139;28;20409;-65
2023/01/12 11:33:14;;;;;;;;;;;10.10;99.90;;;;;;5071446;28;19927;-65
2023/01/12 11:35:43;;;;;;;;;;;10.10;99.90;;;;;;5063341;28;19996;-65
2023/01/12 11:38:11;;;;;;;;;;;10.10;99.90;;;;;;5057331;28;19912;-65
2023/01/12 11:40:37;;;;;;;;;;;10.10;99.90;;;;;;5072420;28;19938;-64
2023/01/12 11:46:02;;;;;;;;;;;10.10;99.90;;;;;;5075767;28;19918;-65
2023/01/12 11:48:46;;;;;;;;;;;10.10;99.90;;;;;;5077000;28;19917;-64
2023/01/12 11:51:12;;;;;;;;;;;10.10;99.90;;;;;;5076059;28;20357;-64
2023/01/12 11:53:39;;;;;;;;;;;10.00;99.90;;;;;;5059535;28;19919;-64
2023/01/12 11:56:12;;;;;;;;;;;10.10;99.90;;;;;;5076079;28;20404;-64
2023/01/12 11:58:52;;;;;;;;;;;10.10;99.90;;;;;;5048401;28;20032;-64
2023/01/12 12:01:23;;;;;;;;;;;10.10;99.90;;;;;;5076720;28;19920;-64
2023/01/12 12:04:08;;;;;;;;;;;10.20;99.90;;;;;;5075861;28;19912;-64
2023/01/12 12:06:55;;;;;;;;;;;10.10;99.90;;;;;;5075327;28;19913;-64
2023/01/12 12:09:34;;;;;;;;;;;10.10;99.90;;;;;;5058385;28;20025;-64
2023/01/12 12:12:01;;;;;;;;;;;10.20;99.90;;;;;;5070516;28;19920;-64
2023/01/12 12:14:36;;;;;;;;;;;10.20;99.90;;;;;;5076627;28;19933;-65
2023/01/12 12:17:20;;;;;;;;;;;10.20;99.90;;;;;;5059118;28;20388;-64
2023/01/12 12:20:06;;;;;;;;;;;10.20;99.90;;;;;;5076453;28;19913;-65
2023/01/12 12:22:37;;;;;;;;;;;10.20;99.90;;;;;;5075232;28;19938;-65
2023/01/12 12:25:22;;;;;;;;;;;10.20;99.90;;;;;;5075696;28;19919;-65
2023/01/12 12:27:57;;;;;;;;;;;10.30;99.90;;;;;;5076484;28;20297;-64
2023/01/12 12:30:42;;;;;;;;;;;10.20;99.90;;;;;;5072880;28;19966;-64
2023/01/12 12:33:28;;;;;;;;;;;10.20;99.90;;;;;;5076051;28;19947;-64
2023/01/12 12:36:14;;;;;;;;;;;10.20;99.90;;;;;;5075920;28;19909;-64
2023/01/12 12:38:43;;;;;;;;;;;10.20;99.90;;;;;;5074983;28;19913;-64
2023/01/12 12:47:08;;;;;;;;;;;10.30;99.90;;;;;;5074864;28;19913;-64
2023/01/12 12:49:36;;;;;;;;;;;10.30;99.90;;;;;;5075035;28;19919;-64
2023/01/12 12:52:03;;;;;;;;;;;10.20;99.90;;;;;;5073412;28;19938;-64
2023/01/12 12:54:29;;;;;;;;;;;10.20;99.90;;;;;;5075760;28;19908;-64
2023/01/12 12:56:55;;;;;;;;;;;10.20;99.90;;;;;;5076455;28;19915;-64
2023/01/12 12:59:40;;;;;;;;;;;10.20;99.90;;;;;;5086262;28;19908;-65
2023/01/12 13:02:26;;;;;;;;;;;10.20;99.90;;;;;;5075559;28;19909;-64
2023/01/12 13:04:54;;;;;;;;;;;10.20;99.90;;;;;;5075568;28;19908;-65
2023/01/12 13:07:20;;;;;;;;;;;10.20;99.90;;;;;;5075676;28;20439;-64
2023/01/12 13:09:47;;;;;;;;;;;10.20;99.90;;;;;;5075461;28;19909;-65
2023/01/12 13:12:28;;;;;;;;;;;10.20;99.90;;;;;;5075241;28;19920;-64
2023/01/12 13:15:13;;;;;;;;;;;10.20;99.90;;;;;;5057547;28;19912;-64
2023/01/12 13:17:40;;;;;;;;;;;10.20;99.90;;;;;;5062713;28;19947;-64
2023/01/12 13:22:47;;;;;;;;;;;10.20;99.90;;;;;;5085874;28;19922;-65
2023/01/12 13:25:19;;;;;;;;;;;10.20;99.90;;;;;;5102691;28;20395;-65
2023/01/12 13:27:47;;;;;;;;;;;10.20;99.90;;;;;;5099691;28;19930;-65
2023/01/12 13:30:22;;;;;;;;;;;10.20;99.90;;;;;;5091287;28;20362;-65
2023/01/12 13:32:55;;;;;;;;;;;10.20;99.90;;;;;;5078074;28;20403;-65
2023/01/12 13:38:35;;;;;;;;;;;10.20;99.90;;;;;;5091144;27;19913;-64
2023/01/12 13:41:04;;;;;;;;;;;10.20;99.90;;;;;;5070805;28;20011;-64
2023/01/12 13:43:32;;;;;;;;;;;10.20;99.90;;;;;;5086283;28;20369;-64
2023/01/12 13:46:03;;;;;;;;;;;10.30;99.90;;;;;;5102205;28;19966;-64
2023/01/12 13:48:30;;;;;;;;;;;10.20;99.90;;;;;;5090792;28;19908;-64
2023/01/12 13:51:02;;;;;;;;;;;10.20;99.90;;;;;;5091027;28;20004;-65
2023/01/12 13:53:28;;;;;;;;;;;10.20;99.90;;;;;;5095163;28;20385;-64
2023/01/12 13:55:55;;;;;;;;;;;10.20;99.90;;;;;;5090697;28;20394;-65
2023/01/12 13:58:21;;;;;;;;;;;10.20;99.90;;;;;;5103816;28;20374;-64
2023/01/12 14:01:01;;;;;;;;;;;10.20;99.90;;;;;;5111038;28;19943;-64
2023/01/12 14:03:38;;;;;;;;;;;10.30;99.90;;;;;;5111190;28;19912;-64
2023/01/12 14:06:07;;;;;;;;;;;10.30;99.90;;;;;;5111210;28;19930;-64
2023/01/12 14:08:43;;;;;;;;;;;10.30;99.90;;;;;;5070815;28;19909;-64
2023/01/12 14:11:17;;;;;;;;;;;10.40;99.90;;;;;;5070262;28;19916;-65
2023/01/12 14:19:27;;;;;;;;;;;10.40;99.90;;;;;;5090836;28;19995;-64
2023/01/12 14:21:54;;;;;;;;;;;10.50;99.90;;;;;;5091205;28;20388;-64
2023/01/12 14:24:20;;;;;;;;;;;10.60;99.90;;;;;;5081374;28;19999;-64
2023/01/12 14:26:46;;;;;;;;;;;10.60;99.90;;;;;;5070708;28;19986;-64
2023/01/12 14:29:11;;;;;;;;;;;10.60;99.90;;;;;;5070866;28;20302;-64
2023/01/12 14:31:46;;;;;;;;;;;10.60;99.90;;;;;;5070607;28;19920;-63
2023/01/12 14:34:33;;;;;;;;;;;10.60;99.90;;;;;;5070438;28;20464;-64
2023/01/12 14:37:00;;;;;;;;;;;10.60;99.90;;;;;;5070420;28;20259;-64
2023/01/12 14:39:26;;;;;;;;;;;10.60;99.90;;;;;;5070549;28;19966;-64
2023/01/12 14:47:33;;;;;;;;;;;10.50;99.90;;;;;;5070188;28;19954;-64
2023/01/12 14:50:15;;;;;;;;;;;10.50;99.90;;;;;;5070567;28;20007;-64
2023/01/12 14:52:41;;;;;;;;;;;10.50;99.90;;;;;;5070444;28;19998;-64
2023/01/12 14:55:15;;;;;;;;;;;10.50;99.90;;;;;;5070821;28;19912;-64
2023/01/12 14:57:41;;;;;;;;;;;10.50;99.90;;;;;;5070062;28;19912;-64
2023/01/12 15:00:17;;;;;;;;;;;10.40;99.90;;;;;;5115909;28;19918;-63
2023/01/12 15:02:47;;;;;;;;;;;10.40;99.90;;;;;;5089128;28;19919;-64
2023/01/12 15:05:19;;;;;;;;;;;10.40;99.90;;;;;;5086456;28;19944;-64
2023/01/12 15:08:02;;;;;;;;;;;10.40;99.90;;;;;;5068609;28;19908;-64
2023/01/12 15:10:29;;;;;;;;;;;10.40;99.90;;;;;;5073881;28;20195;-64
2023/01/12 15:12:55;;;;;;;;;;;10.30;99.90;;;;;;5090101;28;19995;-64
2023/01/12 15:25:34;;;;;;;;;;;10.30;99.90;;;;;;5096493;28;19989;-64
2023/01/12 15:26:31;;;;;;;;;;;10.30;99.90;;;;;;5105817;28;19912;-65
2023/01/12 15:28:56;;;;;;;;;;;10.30;99.90;;;;;;5095223;28;19973;-65
2023/01/12 15:31:24;;;;;;;;;;;10.30;99.90;;;;;;5096422;28;19908;-65
2023/01/12 15:33:50;;;;;;;;;;;10.30;99.90;;;;;;5095513;28;19912;-65
2023/01/12 15:36:15;;;;;;;;;;;10.30;99.90;;;;;;5065538;28;19998;-64